createdAt,value
2023-03-27T00:02:06.289Z,78.06
2023-03-27T00:07:07.806Z,77.36
2023-03-27T00:12:09.216Z,77.57
2023-03-27T00:17:11.040Z,78.05
2023-03-27T00:22:12.914Z,78.41
2023-03-27T00:27:14.484Z,78.60
2023-03-27T00:32:16.180Z,80.00
2023-03-27T00:37:18.053Z,80.08
2023-03-27T00:42:22.878Z,81.40
2023-03-27T00:47:33.919Z,80.69
2023-03-27T00:52:37.140Z,79.85
2023-03-27T00:57:38.643Z,81.78
2023-03-27T01:02:46.368Z,81.53
2023-03-27T01:08:00.000Z,81.19
2023-03-27T01:13:24.395Z,81.65
2023-03-27T01:18:47.066Z,81.23
2023-03-27T01:24:38.482Z,81.74
2023-03-27T01:29:39.858Z,81.83
2023-03-27T01:35:03.711Z,82.44
2023-03-27T01:40:18.011Z,82.85
2023-03-27T01:45:41.875Z,81.58
2023-03-27T01:50:49.881Z,81.17
2023-03-27T01:55:58.396Z,81.46
2023-03-27T02:01:01.783Z,80.46
2023-03-27T02:06:07.940Z,79.90
2023-03-27T02:11:09.607Z,79.88
2023-03-27T02:16:17.238Z,79.51
2023-03-27T02:21:18.813Z,79.05
2023-03-27T02:26:20.316Z,79.32
2023-03-27T02:31:45.835Z,79.55
2023-03-27T02:36:50.787Z,79.09
2023-03-27T02:42:11.896Z,80.12
2023-03-27T02:47:23.793Z,80.28
2023-03-27T02:52:39.568Z,79.98
2023-03-27T02:57:51.879Z,79.55
2023-03-27T03:03:05.992Z,79.43
2023-03-27T03:08:10.257Z,80.92
2023-03-27T03:13:11.902Z,80.93
2023-03-27T03:18:14.124Z,80.30
2023-03-27T03:23:15.663Z,80.71
2023-03-27T03:28:18.190Z,80.31
2023-03-27T03:33:20.375Z,80.15
2023-03-27T03:38:24.852Z,79.10
2023-03-27T03:43:28.233Z,80.01
2023-03-27T03:48:29.742Z,77.60
2023-03-27T03:53:31.197Z,78.65
2023-03-27T03:58:34.563Z,78.27
2023-03-27T04:03:36.831Z,76.49
2023-03-27T04:08:38.407Z,75.65
2023-03-27T04:13:39.813Z,76.14
2023-03-27T04:18:42.510Z,75.70
2023-03-27T04:23:45.903Z,76.81
2023-03-27T04:28:51.687Z,77.11
2023-03-27T04:33:53.117Z,77.35
2023-03-27T04:38:54.625Z,76.97
2023-03-27T04:43:56.096Z,77.65
2023-03-27T04:48:57.497Z,78.20
2023-03-27T04:53:58.938Z,77.50
2023-03-27T04:59:03.641Z,80.50
2023-03-27T05:04:05.230Z,80.38
2023-03-27T05:09:06.681Z,79.66
2023-03-27T05:14:08.190Z,80.81
2023-03-27T05:19:09.907Z,79.85
2023-03-27T05:24:11.346Z,81.09
2023-03-27T05:29:14.021Z,80.91
2023-03-27T05:34:15.429Z,80.00
2023-03-27T05:39:16.887Z,78.83
2023-03-27T05:44:18.295Z,79.48
2023-03-27T05:49:20.215Z,78.43
2023-03-27T05:54:21.794Z,78.76
2023-03-27T05:59:23.660Z,77.68
2023-03-27T06:04:25.240Z,80.02
2023-03-27T06:09:26.687Z,79.79
2023-03-27T06:14:28.102Z,79.73
2023-03-27T06:19:29.542Z,79.58
2023-03-27T06:24:30.964Z,80.00
2023-03-27T06:29:33.370Z,80.04
2023-03-27T06:34:34.804Z,79.74
2023-03-27T06:39:36.308Z,80.13
2023-03-27T06:44:37.760Z,82.39
2023-03-27T06:49:39.196Z,81.85
2023-03-27T06:54:40.609Z,83.04
2023-03-27T06:59:42.052Z,82.95
2023-03-27T07:04:54.158Z,82.92
2023-03-27T07:09:59.936Z,84.41
2023-03-27T07:15:01.469Z,82.77
2023-03-27T07:20:05.761Z,81.61
2023-03-27T07:25:07.734Z,81.32
2023-03-27T07:30:12.260Z,82.26
2023-03-27T07:35:14.925Z,81.38
2023-03-27T07:40:29.525Z,81.14
2023-03-27T07:45:38.924Z,77.54
2023-03-27T07:50:40.409Z,76.94
2023-03-27T07:55:42.182Z,74.75
2023-03-27T08:00:43.650Z,73.38
2023-03-27T08:05:52.234Z,69.81
2023-03-27T08:10:54.412Z,69.77
2023-03-27T08:16:20.107Z,68.90
2023-03-27T08:21:21.701Z,67.39
2023-03-27T08:26:23.158Z,66.75
2023-03-27T08:31:25.701Z,67.33
2023-03-27T08:36:27.762Z,67.75
2023-03-27T08:41:38.439Z,67.11
2023-03-27T08:46:57.915Z,65.60
2023-03-27T08:52:03.956Z,65.71
2023-03-27T08:57:20.204Z,64.06
2023-03-27T09:02:39.514Z,65.01
2023-03-27T09:07:43.793Z,64.85
2023-03-27T09:13:04.426Z,63.83
2023-03-27T09:18:19.919Z,65.13
2023-03-27T09:23:38.159Z,65.31
2023-03-27T09:28:50.903Z,65.09
2023-03-27T09:33:52.568Z,65.39
2023-03-27T09:38:58.591Z,64.32
2023-03-27T09:44:25.192Z,64.04
2023-03-27T09:49:27.821Z,63.90
2023-03-27T09:54:29.301Z,62.49
2023-03-27T09:59:33.617Z,60.94
2023-03-27T10:04:35.772Z,60.25
2023-03-27T10:09:39.233Z,60.43
2023-03-27T10:14:44.029Z,59.49
2023-03-27T10:19:45.500Z,60.30
2023-03-27T10:24:47.945Z,58.80
2023-03-27T10:29:49.382Z,60.31
2023-03-27T10:34:52.844Z,58.75
2023-03-27T10:39:56.822Z,58.29
2023-03-27T10:44:59.218Z,55.39
2023-03-27T10:50:12.746Z,56.41
2023-03-27T10:55:24.761Z,55.37
2023-03-27T11:00:40.980Z,53.93
2023-03-27T11:05:47.283Z,55.11
2023-03-27T11:10:50.178Z,54.42
2023-03-27T11:15:58.026Z,54.93
2023-03-27T11:21:03.386Z,53.38
2023-03-27T11:26:06.385Z,53.70
2023-03-27T11:31:38.964Z,53.18
2023-03-27T11:36:43.469Z,53.13
2023-03-27T11:41:51.196Z,53.37
2023-03-27T11:47:10.740Z,53.99
2023-03-27T11:52:25.771Z,52.77
2023-03-27T11:57:27.275Z,51.93
2023-03-27T12:02:59.069Z,50.62
2023-03-27T12:08:45.932Z,48.96
2023-03-27T12:14:18.469Z,50.06
2023-03-27T12:19:51.283Z,49.15
2023-03-27T12:25:26.272Z,50.89
2023-03-27T12:30:42.325Z,51.10
2023-03-27T12:49:13.662Z,49.00
2023-03-27T12:54:29.335Z,47.97
2023-03-27T12:59:35.041Z,45.86
2023-03-27T13:05:20.384Z,46.00
2023-03-27T13:11:10.431Z,47.18
2023-03-27T13:16:35.581Z,47.41
2023-03-27T13:22:00.960Z,47.46
2023-03-27T13:27:12.947Z,46.80
2023-03-27T13:32:37.861Z,45.78
2023-03-27T13:37:50.721Z,46.90
2023-03-27T13:43:10.103Z,46.65
2023-03-27T13:48:35.125Z,43.15
2023-03-27T13:53:52.410Z,42.90
2023-03-27T13:59:17.603Z,43.82
2023-03-27T14:04:44.781Z,43.22
2023-03-27T14:10:04.870Z,43.28
2023-03-27T14:15:21.014Z,40.79
2023-03-27T14:20:25.957Z,40.48
2023-03-27T14:25:34.269Z,39.87
2023-03-27T14:30:47.549Z,39.43
2023-03-27T14:35:55.549Z,39.21
2023-03-27T14:40:59.747Z,38.94
2023-03-27T14:46:04.801Z,38.00
2023-03-27T14:51:14.280Z,39.31
2023-03-27T14:56:27.829Z,38.25
2023-03-27T15:01:31.999Z,38.44
2023-03-27T15:06:36.689Z,37.29
2023-03-27T15:11:40.116Z,34.60
2023-03-27T15:16:46.580Z,36.15
2023-03-27T15:22:01.268Z,35.21
2023-03-27T15:27:04.674Z,35.76
2023-03-27T15:32:14.672Z,35.02
2023-03-27T15:37:19.880Z,36.00
2023-03-27T15:42:21.272Z,35.28
2023-03-27T15:47:28.543Z,34.86
2023-03-27T15:52:32.480Z,35.50
2023-03-27T15:57:34.124Z,36.11
2023-03-27T16:02:36.330Z,36.45
2023-03-27T16:07:43.764Z,36.55
2023-03-27T16:12:56.447Z,37.56
2023-03-27T16:18:01.540Z,37.70
2023-03-27T16:23:04.259Z,37.18
2023-03-27T16:28:08.344Z,37.42
2023-03-27T16:33:15.879Z,37.64
2023-03-27T16:38:18.016Z,37.55
2023-03-27T16:43:19.474Z,37.63
2023-03-27T16:48:21.293Z,38.59
2023-03-27T16:53:22.921Z,38.56
2023-03-27T16:58:24.394Z,38.87
2023-03-27T17:03:25.939Z,38.50
2023-03-27T17:08:30.221Z,39.47
2023-03-27T17:13:32.226Z,38.84
2023-03-27T17:18:33.838Z,40.11
2023-03-27T17:23:36.276Z,40.40
2023-03-27T17:28:37.707Z,40.24
2023-03-27T17:33:39.151Z,40.73
2023-03-27T17:38:41.512Z,40.40
2023-03-27T17:43:44.404Z,39.76
2023-03-27T17:48:46.050Z,40.06
2023-03-27T17:53:47.485Z,39.72
2023-03-27T17:58:50.094Z,40.50
2023-03-27T18:03:51.830Z,40.77
2023-03-27T18:08:53.370Z,40.97
2023-03-27T18:13:54.836Z,41.23
2023-03-27T18:18:57.493Z,41.32
2023-03-27T18:23:59.693Z,41.54
2023-03-27T18:29:01.350Z,41.96
2023-03-27T18:34:03.176Z,41.86
2023-03-27T18:39:06.441Z,42.46
2023-03-27T18:44:07.854Z,42.51
2023-03-27T18:49:21.603Z,42.64
2023-03-27T18:54:26.186Z,43.05
2023-03-27T18:59:27.600Z,43.13
2023-03-27T19:04:29.291Z,44.00
2023-03-27T19:09:40.873Z,43.97
2023-03-27T19:14:42.997Z,44.25
2023-03-27T19:19:46.390Z,44.36
2023-03-27T19:24:48.087Z,44.47
2023-03-27T19:29:49.707Z,44.34
2023-03-27T19:34:51.201Z,45.49
2023-03-27T19:39:52.722Z,45.54
2023-03-27T19:44:55.554Z,46.33
2023-03-27T19:49:57.169Z,45.99
2023-03-27T19:54:58.726Z,46.27
2023-03-27T20:00:00.312Z,46.54
2023-03-27T20:05:01.805Z,46.60
2023-03-27T20:10:04.194Z,46.68
2023-03-27T20:15:12.218Z,46.71
2023-03-27T20:20:14.226Z,47.20
2023-03-27T20:25:15.831Z,48.27
2023-03-27T20:30:17.344Z,48.70
2023-03-27T20:35:24.151Z,49.37
2023-03-27T20:40:26.189Z,50.41
2023-03-27T20:45:31.253Z,51.83
2023-03-27T20:50:35.190Z,54.61
2023-03-27T20:55:43.811Z,55.63
2023-03-27T21:00:48.842Z,57.16
2023-03-27T21:05:50.641Z,59.68
2023-03-27T21:10:53.695Z,59.30
2023-03-27T21:15:55.372Z,59.93
2023-03-27T21:20:56.903Z,62.17
2023-03-27T21:25:58.652Z,63.86
2023-03-27T21:31:00.691Z,64.08
2023-03-27T21:36:02.902Z,63.62
2023-03-27T21:41:05.306Z,67.35
2023-03-27T21:46:06.978Z,64.88
2023-03-27T21:51:09.203Z,67.23
2023-03-27T21:56:10.622Z,69.90
2023-03-27T22:01:12.091Z,66.83
2023-03-27T22:06:13.720Z,67.91
2023-03-27T22:11:15.519Z,67.47
2023-03-27T22:16:17.670Z,68.72
2023-03-27T22:21:27.944Z,69.31
2023-03-27T22:26:32.540Z,71.39
2023-03-27T22:31:34.454Z,69.68
2023-03-27T22:36:36.076Z,70.33
2023-03-27T22:41:37.544Z,73.21
2023-03-27T22:46:38.999Z,74.65
2023-03-27T22:51:40.454Z,72.21
2023-03-27T22:56:41.880Z,73.10
2023-03-27T23:01:43.374Z,72.35
2023-03-27T23:06:44.867Z,74.68
2023-03-27T23:11:47.203Z,74.47
2023-03-27T23:16:48.676Z,73.07
2023-03-27T23:21:50.283Z,73.70
2023-03-27T23:26:51.936Z,73.98
2023-03-27T23:31:53.477Z,75.68
2023-03-27T23:36:55.014Z,73.92
2023-03-27T23:41:56.470Z,74.38
2023-03-27T23:46:57.893Z,73.04
2023-03-27T23:51:59.330Z,74.80
2023-03-27T23:57:00.747Z,73.59
